sensor_id;sensor_type;location;lat;lon;timestamp;pressure;altitude;pressure_sealevel;temperature;humidity
78613;BME280;67933;51.060;3.638;2024-03-06T00:01:42;101781.75;;;6.03;100.00
78613;BME280;67933;51.060;3.638;2024-03-06T00:04:07;101774.63;;;6.06;100.00
78613;BME280;67933;51.060;3.638;2024-03-06T00:06:33;101783.41;;;6.05;100.00
78613;BME280;67933;51.060;3.638;2024-03-06T00:08:59;101787.88;;;6.03;100.00
78613;BME280;67933;51.060;3.638;2024-03-06T00:11:24;101785.28;;;6.02;100.00
78613;BME280;67933;51.060;3.638;2024-03-06T00:13:50;101795.81;;;6.02;100.00
78613;BME280;67933;51.060;3.638;2024-03-06T00:16:16;101795.84;;;6.00;100.00
78613;BME280;67933;51.060;3.638;2024-03-06T00:18:41;101791.59;;;5.95;100.00
78613;BME280;67933;51.060;3.638;2024-03-06T00:21:07;101803.91;;;5.94;100.00
78613;BME280;67933;51.060;3.638;2024-03-06T00:23:32;101796.03;;;5.93;100.00
78613;BME280;67933;51.060;3.638;2024-03-06T00:25:58;101796.91;;;5.92;100.00
78613;BME280;67933;51.060;3.638;2024-03-06T00:28:23;101802.25;;;5.89;100.00
78613;BME280;67933;51.060;3.638;2024-03-06T00:30:49;101794.41;;;5.86;100.00
78613;BME280;67933;51.060;3.638;2024-03-06T00:33:14;101797.22;;;5.78;100.00
78613;BME280;67933;51.060;3.638;2024-03-06T00:35:40;101796.34;;;5.77;100.00
78613;BME280;67933;51.060;3.638;2024-03-06T00:38:05;101805.19;;;5.73;100.00
78613;BME280;67933;51.060;3.638;2024-03-06T00:40:31;101800.06;;;5.67;100.00
78613;BME280;67933;51.060;3.638;2024-03-06T00:42:57;101799.34;;;5.61;100.00
78613;BME280;67933;51.060;3.638;2024-03-06T00:45:23;101805.47;;;5.61;100.00
78613;BME280;67933;51.060;3.638;2024-03-06T00:47:49;101804.59;;;5.62;100.00
78613;BME280;67933;51.060;3.638;2024-03-06T00:50:14;101801.13;;;5.59;100.00
78613;BME280;67933;51.060;3.638;2024-03-06T00:52:42;101799.47;;;5.56;100.00
78613;BME280;67933;51.060;3.638;2024-03-06T00:55:08;101798.66;;;5.51;100.00
78613;BME280;67933;51.060;3.638;2024-03-06T00:57:34;101798.75;;;5.48;100.00
78613;BME280;67933;51.060;3.638;2024-03-06T00:59:59;101801.56;;;5.39;100.00
78613;BME280;67933;51.060;3.638;2024-03-06T01:02:25;101805.97;;;5.38;100.00
78613;BME280;67933;51.060;3.638;2024-03-06T01:04:50;101805.94;;;5.40;100.00
78613;BME280;67933;51.060;3.638;2024-03-06T01:07:16;101822.50;;;5.43;100.00
78613;BME280;67933;51.060;3.638;2024-03-06T01:09:41;101817.38;;;5.37;100.00
78613;BME280;67933;51.060;3.638;2024-03-06T01:12:07;101816.63;;;5.32;100.00
78613;BME280;67933;51.060;3.638;2024-03-06T01:14:32;101819.44;;;5.23;100.00
78613;BME280;67933;51.060;3.638;2024-03-06T01:16:58;101820.44;;;5.18;100.00
78613;BME280;67933;51.060;3.638;2024-03-06T01:19:24;101825.88;;;5.09;100.00
78613;BME280;67933;51.060;3.638;2024-03-06T01:21:49;101820.59;;;5.10;100.00
78613;BME280;67933;51.060;3.638;2024-03-06T01:24:15;101824.13;;;5.08;100.00
78613;BME280;67933;51.060;3.638;2024-03-06T01:26:40;101816.34;;;5.03;100.00
78613;BME280;67933;51.060;3.638;2024-03-06T01:29:06;101815.63;;;4.93;100.00
78613;BME280;67933;51.060;3.638;2024-03-06T01:31:31;101821.91;;;4.86;100.00
78613;BME280;67933;51.060;3.638;2024-03-06T01:33:56;101818.72;;;4.69;100.00
78613;BME280;67933;51.060;3.638;2024-03-06T01:36:22;101828.53;;;4.58;100.00
78613;BME280;67933;51.060;3.638;2024-03-06T01:38:47;101833.13;;;4.47;100.00
78613;BME280;67933;51.060;3.638;2024-03-06T01:41:14;101832.41;;;4.36;100.00
78613;BME280;67933;51.060;3.638;2024-03-06T01:43:39;101830.84;;;4.25;100.00
78613;BME280;67933;51.060;3.638;2024-03-06T01:46:05;101830.91;;;4.19;100.00
78613;BME280;67933;51.060;3.638;2024-03-06T01:48:31;101832.63;;;4.22;100.00
78613;BME280;67933;51.060;3.638;2024-03-06T01:50:58;101841.41;;;4.19;100.00
78613;BME280;67933;51.060;3.638;2024-03-06T01:53:27;101843.34;;;4.08;100.00
78613;BME280;67933;51.060;3.638;2024-03-06T01:55:54;101845.25;;;3.97;100.00
78613;BME280;67933;51.060;3.638;2024-03-06T01:58:20;101843.69;;;3.87;100.00
78613;BME280;67933;51.060;3.638;2024-03-06T02:00:46;101846.25;;;3.90;100.00
78613;BME280;67933;51.060;3.638;2024-03-06T02:03:12;101845.25;;;3.99;100.00
78613;BME280;67933;51.060;3.638;2024-03-06T02:05:37;101858.47;;;3.93;100.00
78613;BME280;67933;51.060;3.638;2024-03-06T02:08:04;101849.00;;;3.81;100.00
78613;BME280;67933;51.060;3.638;2024-03-06T02:10:30;101849.06;;;3.75;100.00
78613;BME280;67933;51.060;3.638;2024-03-06T02:12:56;101861.44;;;3.67;100.00
78613;BME280;67933;51.060;3.638;2024-03-06T02:15:22;101850.16;;;3.59;100.00
78613;BME280;67933;51.060;3.638;2024-03-06T02:17:47;101856.47;;;3.45;100.00
78613;BME280;67933;51.060;3.638;2024-03-06T02:20:12;101855.72;;;3.34;100.00
78613;BME280;67933;51.060;3.638;2024-03-06T02:22:42;101858.44;;;3.25;100.00
78613;BME280;67933;51.060;3.638;2024-03-06T02:25:08;101855.06;;;3.17;100.00
78613;BME280;67933;51.060;3.638;2024-03-06T02:27:34;101857.78;;;3.08;100.00
78613;BME280;67933;51.060;3.638;2024-03-06T02:29:59;101864.78;;;3.06;100.00
78613;BME280;67933;51.060;3.638;2024-03-06T02:32:25;101863.91;;;3.04;100.00
78613;BME280;67933;51.060;3.638;2024-03-06T02:34:50;101868.28;;;3.05;100.00
78613;BME280;67933;51.060;3.638;2024-03-06T02:37:17;101856.03;;;3.07;100.00
78613;BME280;67933;51.060;3.638;2024-03-06T02:39:43;101863.00;;;3.09;100.00
78613;BME280;67933;51.060;3.638;2024-03-06T02:42:09;101860.38;;;3.09;100.00
78613;BME280;67933;51.060;3.638;2024-03-06T02:44:34;101856.03;;;3.07;100.00
78613;BME280;67933;51.060;3.638;2024-03-06T02:47:00;101863.91;;;3.05;100.00
78613;BME280;67933;51.060;3.638;2024-03-06T02:49:25;101870.00;;;3.06;100.00
78613;BME280;67933;51.060;3.638;2024-03-06T02:51:50;101863.03;;;3.06;100.00
78613;BME280;67933;51.060;3.638;2024-03-06T02:54:16;101858.72;;;3.01;100.00
78613;BME280;67933;51.060;3.638;2024-03-06T02:56:42;101858.75;;;2.95;100.00
78613;BME280;67933;51.060;3.638;2024-03-06T02:59:07;101857.13;;;2.85;100.00
78613;BME280;67933;51.060;3.638;2024-03-06T03:01:33;101860.66;;;2.79;100.00
78613;BME280;67933;51.060;3.638;2024-03-06T03:03:59;101861.66;;;2.64;100.00
78613;BME280;67933;51.060;3.638;2024-03-06T03:06:25;101867.88;;;2.54;100.00
78613;BME280;67933;51.060;3.638;2024-03-06T03:08:50;101863.53;;;2.55;100.00
78613;BME280;67933;51.060;3.638;2024-03-06T03:11:16;101861.78;;;2.54;100.00
78613;BME280;67933;51.060;3.638;2024-03-06T03:13:41;101869.66;;;2.49;100.00
78613;BME280;67933;51.060;3.638;2024-03-06T03:16:15;101873.19;;;2.42;100.00
78613;BME280;67933;51.060;3.638;2024-03-06T03:18:41;101876.75;;;2.40;100.00
78613;BME280;67933;51.060;3.638;2024-03-06T03:21:08;101878.47;;;2.39;100.00
78613;BME280;67933;51.060;3.638;2024-03-06T03:23:35;101876.69;;;2.41;100.00
78613;BME280;67933;51.060;3.638;2024-03-06T03:26:01;101882.81;;;2.40;100.00
78613;BME280;67933;51.060;3.638;2024-03-06T03:28:26;101878.47;;;2.39;100.00
78613;BME280;67933;51.060;3.638;2024-03-06T03:30:52;101895.91;;;2.40;100.00
78613;BME280;67933;51.060;3.638;2024-03-06T03:33:17;101886.31;;;2.41;100.00
78613;BME280;67933;51.060;3.638;2024-03-06T03:35:43;101885.44;;;2.40;100.00
78613;BME280;67933;51.060;3.638;2024-03-06T03:38:08;101887.16;;;2.41;100.00
78613;BME280;67933;51.060;3.638;2024-03-06T03:40:33;101881.97;;;2.38;100.00
78613;BME280;67933;51.060;3.638;2024-03-06T03:42:59;101888.97;;;2.33;100.00
78613;BME280;67933;51.060;3.638;2024-03-06T03:45:31;101883.81;;;2.24;100.00
78613;BME280;67933;51.060;3.638;2024-03-06T03:47:56;101879.47;;;2.17;100.00
78613;BME280;67933;51.060;3.638;2024-03-06T03:50:21;101893.47;;;2.14;100.00
78613;BME280;67933;51.060;3.638;2024-03-06T03:52:47;101894.38;;;2.10;100.00
78613;BME280;67933;51.060;3.638;2024-03-06T03:55:12;101897.88;;;2.08;100.00
78613;BME280;67933;51.060;3.638;2024-03-06T03:57:38;101902.25;;;2.03;100.00
78613;BME280;67933;51.060;3.638;2024-03-06T04:00:04;101890.97;;;1.99;100.00
78613;BME280;67933;51.060;3.638;2024-03-06T04:02:36;101896.19;;;1.94;100.00
78613;BME280;67933;51.060;3.638;2024-03-06T04:05:02;101895.38;;;1.88;100.00
78613;BME280;67933;51.060;3.638;2024-03-06T04:07:27;101887.56;;;1.83;100.00
78613;BME280;67933;51.060;3.638;2024-03-06T04:09:53;101882.31;;;1.80;100.00
78613;BME280;67933;51.060;3.638;2024-03-06T04:12:18;101883.19;;;1.79;100.00
78613;BME280;67933;51.060;3.638;2024-03-06T04:14:43;101892.78;;;1.80;100.00
78613;BME280;67933;51.060;3.638;2024-03-06T04:17:09;101887.59;;;1.77;100.00
78613;BME280;67933;51.060;3.638;2024-03-06T04:19:34;101897.19;;;1.72;100.00
78613;BME280;67933;51.060;3.638;2024-03-06T04:22:00;101901.56;;;1.69;100.00
78613;BME280;67933;51.060;3.638;2024-03-06T04:24:25;101889.38;;;1.66;100.00
78613;BME280;67933;51.060;3.638;2024-03-06T04:26:51;101896.34;;;1.67;100.00
78613;BME280;67933;51.060;3.638;2024-03-06T04:29:18;101900.69;;;1.64;100.00
78613;BME280;67933;51.060;3.638;2024-03-06T04:31:44;101899.88;;;1.57;100.00
78613;BME280;67933;51.060;3.638;2024-03-06T04:34:09;101901.63;;;1.49;100.00
78613;BME280;67933;51.060;3.638;2024-03-06T04:36:34;101918.19;;;1.51;100.00
78613;BME280;67933;51.060;3.638;2024-03-06T04:39:00;101912.94;;;1.57;100.00
78613;BME280;67933;51.060;3.638;2024-03-06T04:41:25;101919.03;;;1.59;100.00
78613;BME280;67933;51.060;3.638;2024-03-06T04:43:51;101925.13;;;1.58;100.00
78613;BME280;67933;51.060;3.638;2024-03-06T04:46:17;101926.91;;;1.54;100.00
78613;BME280;67933;51.060;3.638;2024-03-06T04:48:42;101935.59;;;1.55;100.00
78613;BME280;67933;51.060;3.638;2024-03-06T04:51:08;101941.72;;;1.51;100.00
78613;BME280;67933;51.060;3.638;2024-03-06T04:53:35;101937.38;;;1.44;100.00
78613;BME280;67933;51.060;3.638;2024-03-06T04:56:00;101940.91;;;1.37;100.00
78613;BME280;67933;51.060;3.638;2024-03-06T04:58:26;101954.84;;;1.27;100.00
78613;BME280;67933;51.060;3.638;2024-03-06T05:00:51;101945.28;;;1.29;100.00
78613;BME280;67933;51.060;3.638;2024-03-06T05:03:17;101948.75;;;1.37;100.00
78613;BME280;67933;51.060;3.638;2024-03-06T05:05:42;101954.78;;;1.48;100.00
78613;BME280;67933;51.060;3.638;2024-03-06T05:08:10;101960.00;;;1.55;100.00
78613;BME280;67933;51.060;3.638;2024-03-06T05:10:36;101966.94;;;1.64;100.00
78613;BME280;67933;51.060;3.638;2024-03-06T05:13:01;101962.56;;;1.75;100.00
78613;BME280;67933;51.060;3.638;2024-03-06T05:15:27;101962.50;;;1.90;100.00
78613;BME280;67933;51.060;3.638;2024-03-06T05:17:52;101962.44;;;2.03;100.00
78613;BME280;67933;51.060;3.638;2024-03-06T05:20:18;101962.41;;;2.10;100.00
78613;BME280;67933;51.060;3.638;2024-03-06T05:22:43;101968.47;;;2.18;100.00
78613;BME280;67933;51.060;3.638;2024-03-06T05:25:09;101975.41;;;2.28;100.00
78613;BME280;67933;51.060;3.638;2024-03-06T05:27:35;101973.66;;;2.32;100.00
78613;BME280;67933;51.060;3.638;2024-03-06T05:30:00;101971.88;;;2.34;100.00
78613;BME280;67933;51.060;3.638;2024-03-06T05:32:26;101980.59;;;2.39;100.00
78613;BME280;67933;51.060;3.638;2024-03-06T05:34:51;101973.53;;;2.50;100.00
78613;BME280;67933;51.060;3.638;2024-03-06T05:37:17;101989.19;;;2.59;100.00
78613;BME280;67933;51.060;3.638;2024-03-06T05:39:42;101995.31;;;2.61;100.00
78613;BME280;67933;51.060;3.638;2024-03-06T05:42:08;101983.91;;;2.64;100.00
78613;BME280;67933;51.060;3.638;2024-03-06T05:44:33;101986.47;;;2.75;100.00
78613;BME280;67933;51.060;3.638;2024-03-06T05:47:00;101984.78;;;2.67;100.00
78613;BME280;67933;51.060;3.638;2024-03-06T05:49:26;101994.38;;;2.64;100.00
78613;BME280;67933;51.060;3.638;2024-03-06T05:51:52;102004.00;;;2.63;100.00
78613;BME280;67933;51.060;3.638;2024-03-06T05:54:19;102006.56;;;2.71;100.00
78613;BME280;67933;51.060;3.638;2024-03-06T05:56:44;102003.81;;;2.88;100.00
78613;BME280;67933;51.060;3.638;2024-03-06T05:59:10;102013.47;;;2.86;100.00
78613;BME280;67933;51.060;3.638;2024-03-06T06:01:35;102004.72;;;2.87;100.00
78613;BME280;67933;51.060;3.638;2024-03-06T06:04:01;102006.44;;;2.88;100.00
78613;BME280;67933;51.060;3.638;2024-03-06T06:06:27;102009.06;;;2.92;100.00
78613;BME280;67933;51.060;3.638;2024-03-06T06:08:52;102019.50;;;2.97;100.00
78613;BME280;67933;51.060;3.638;2024-03-06T06:11:18;102017.75;;;2.96;100.00
78613;BME280;67933;51.060;3.638;2024-03-06T06:13:43;102023.03;;;2.93;100.00
78613;BME280;67933;51.060;3.638;2024-03-06T06:16:08;102022.09;;;2.98;100.00
78613;BME280;67933;51.060;3.638;2024-03-06T06:18:34;102028.22;;;3.02;100.00
78613;BME280;67933;51.060;3.638;2024-03-06T06:20:59;102031.66;;;3.02;100.00
78613;BME280;67933;51.060;3.638;2024-03-06T06:23:25;102037.78;;;3.06;100.00
78613;BME280;67933;51.060;3.638;2024-03-06T06:25:50;102043.81;;;3.14;100.00
78613;BME280;67933;51.060;3.638;2024-03-06T06:28:16;102042.03;;;3.19;100.00
78613;BME280;67933;51.060;3.638;2024-03-06T06:30:41;102045.50;;;3.21;100.00
78613;BME280;67933;51.060;3.638;2024-03-06T06:33:07;102052.50;;;3.24;100.00
78613;BME280;67933;51.060;3.638;2024-03-06T06:35:35;102050.69;;;3.27;100.00
78613;BME280;67933;51.060;3.638;2024-03-06T06:38:01;102055.81;;;3.42;100.00
78613;BME280;67933;51.060;3.638;2024-03-06T06:40:27;102057.56;;;3.43;100.00
78613;BME280;67933;51.060;3.638;2024-03-06T06:42:55;102054.06;;;3.44;100.00
78613;BME280;67933;51.060;3.638;2024-03-06T06:45:21;102059.25;;;3.51;100.00
78613;BME280;67933;51.060;3.638;2024-03-06T06:47:48;102063.53;;;3.62;100.00
78613;BME280;67933;51.060;3.638;2024-03-06T06:50:13;102063.44;;;3.71;100.00
78613;BME280;67933;51.060;3.638;2024-03-06T06:52:39;102074.75;;;3.75;100.00
78613;BME280;67933;51.060;3.638;2024-03-06T06:55:05;102076.47;;;3.79;100.00
78613;BME280;67933;51.060;3.638;2024-03-06T06:57:31;102082.53;;;3.85;100.00
78613;BME280;67933;51.060;3.638;2024-03-06T06:59:58;102086.78;;;3.97;100.00
78613;BME280;67933;51.060;3.638;2024-03-06T07:02:23;102087.56;;;4.07;100.00
78613;BME280;67933;51.060;3.638;2024-03-06T07:04:48;102090.09;;;4.13;100.00
78613;BME280;67933;51.060;3.638;2024-03-06T07:07:14;102107.59;;;4.15;100.00
78613;BME280;67933;51.060;3.638;2024-03-06T07:09:40;102094.41;;;4.20;100.00
78613;BME280;67933;51.060;3.638;2024-03-06T07:12:05;102100.50;;;4.23;100.00
78613;BME280;67933;51.060;3.638;2024-03-06T07:14:33;102094.31;;;4.26;100.00
78613;BME280;67933;51.060;3.638;2024-03-06T07:16:58;102089.91;;;4.30;100.00
78613;BME280;67933;51.060;3.638;2024-03-06T07:19:24;102102.94;;;4.39;100.00
78613;BME280;67933;51.060;3.638;2024-03-06T07:21:49;102103.66;;;4.50;100.00
78613;BME280;67933;51.060;3.638;2024-03-06T07:24:15;102105.22;;;4.66;100.00
78613;BME280;67933;51.060;3.638;2024-03-06T07:26:40;102106.81;;;4.78;100.00
78613;BME280;67933;51.060;3.638;2024-03-06T07:29:07;102112.84;;;4.86;100.00
78613;BME280;67933;51.060;3.638;2024-03-06T07:31:42;102111.97;;;4.85;100.00
78613;BME280;67933;51.060;3.638;2024-03-06T07:34:09;102113.63;;;4.92;100.00
78613;BME280;67933;51.060;3.638;2024-03-06T07:36:35;102114.31;;;5.05;100.00
78613;BME280;67933;51.060;3.638;2024-03-06T07:39:01;102120.41;;;5.09;100.00
78613;BME280;67933;51.060;3.638;2024-03-06T07:41:28;102124.72;;;5.14;100.00
78613;BME280;67933;51.060;3.638;2024-03-06T07:43:53;102133.78;;;5.50;100.00
78613;BME280;67933;51.060;3.638;2024-03-06T07:46:19;102120.97;;;5.82;100.00
78613;BME280;67933;51.060;3.638;2024-03-06T07:48:44;102135.75;;;5.93;100.00
78613;BME280;67933;51.060;3.638;2024-03-06T07:51:10;102125.00;;;6.49;100.00
78613;BME280;67933;51.060;3.638;2024-03-06T07:53:35;102127.44;;;7.00;100.00
78613;BME280;67933;51.060;3.638;2024-03-06T07:56:02;102129.34;;;7.30;100.00
78613;BME280;67933;51.060;3.638;2024-03-06T07:58:28;102132.69;;;7.39;100.00
78613;BME280;67933;51.060;3.638;2024-03-06T08:00:53;102131.94;;;7.33;100.00
78613;BME280;67933;51.060;3.638;2024-03-06T08:03:21;102146.59;;;7.08;100.00
78613;BME280;67933;51.060;3.638;2024-03-06T08:05:50;102135.72;;;6.82;100.00
78613;BME280;67933;51.060;3.638;2024-03-06T08:08:16;102155.63;;;6.55;100.00
78613;BME280;67933;51.060;3.638;2024-03-06T08:10:41;102150.53;;;6.47;100.00
78613;BME280;67933;51.060;3.638;2024-03-06T08:13:06;102151.38;;;6.49;100.00
78613;BME280;67933;51.060;3.638;2024-03-06T08:15:33;102153.38;;;6.35;100.00
78613;BME280;67933;51.060;3.638;2024-03-06T08:17:59;102165.56;;;6.42;100.00
78613;BME280;67933;51.060;3.638;2024-03-06T08:20:24;102166.47;;;6.41;100.00
78613;BME280;67933;51.060;3.638;2024-03-06T08:22:49;102175.88;;;6.53;100.00
78613;BME280;67933;51.060;3.638;2024-03-06T08:25:15;102173.94;;;6.63;100.00
78613;BME280;67933;51.060;3.638;2024-03-06T08:27:41;102174.88;;;6.58;100.00
78613;BME280;67933;51.060;3.638;2024-03-06T08:30:08;102180.06;;;6.65;100.00
78613;BME280;67933;51.060;3.638;2024-03-06T08:32:34;102183.56;;;6.65;100.00
78613;BME280;67933;51.060;3.638;2024-03-06T08:35:13;102187.72;;;6.77;100.00
78613;BME280;67933;51.060;3.638;2024-03-06T08:37:39;102187.59;;;6.83;100.00
78613;BME280;67933;51.060;3.638;2024-03-06T08:40:09;102196.38;;;6.83;100.00
78613;BME280;67933;51.060;3.638;2024-03-06T08:42:44;102193.84;;;6.77;100.00
78613;BME280;67933;51.060;3.638;2024-03-06T08:45:10;102200.91;;;6.75;100.00
78613;BME280;67933;51.060;3.638;2024-03-06T08:47:36;102201.00;;;6.72;100.00
78613;BME280;67933;51.060;3.638;2024-03-06T08:50:02;102203.59;;;6.74;100.00
78613;BME280;67933;51.060;3.638;2024-03-06T08:52:28;102209.06;;;6.65;100.00
78613;BME280;67933;51.060;3.638;2024-03-06T08:54:54;102216.00;;;6.69;100.00
78613;BME280;67933;51.060;3.638;2024-03-06T08:57:19;102208.81;;;6.77;100.00
78613;BME280;67933;51.060;3.638;2024-03-06T08:59:47;102212.94;;;6.90;100.00
78613;BME280;67933;51.060;3.638;2024-03-06T09:02:18;102202.97;;;7.04;100.00
78613;BME280;67933;51.060;3.638;2024-03-06T09:04:45;102208.13;;;7.10;100.00
78613;BME280;67933;51.060;3.638;2024-03-06T09:07:11;102212.59;;;7.05;100.00
78613;BME280;67933;51.060;3.638;2024-03-06T09:09:37;102213.31;;;7.13;100.00
78613;BME280;67933;51.060;3.638;2024-03-06T09:12:06;102213.63;;;7.40;100.00
78613;BME280;67933;51.060;3.638;2024-03-06T09:14:34;102214.13;;;7.57;100.00
78613;BME280;67933;51.060;3.638;2024-03-06T09:17:00;102218.88;;;7.78;100.00
78613;BME280;67933;51.060;3.638;2024-03-06T09:19:26;102217.81;;;7.85;100.00
78613;BME280;67933;51.060;3.638;2024-03-06T09:21:51;102215.81;;;7.96;100.00
78613;BME280;67933;51.060;3.638;2024-03-06T09:24:17;102228.69;;;8.08;100.00
78613;BME280;67933;51.060;3.638;2024-03-06T09:26:43;102220.75;;;8.44;100.00
78613;BME280;67933;51.060;3.638;2024-03-06T09:29:09;102228.84;;;8.38;100.00
78613;BME280;67933;51.060;3.638;2024-03-06T09:31:35;102233.00;;;8.48;100.00
78613;BME280;67933;51.060;3.638;2024-03-06T09:34:02;102227.06;;;8.71;100.00
78613;BME280;67933;51.060;3.638;2024-03-06T09:36:27;102218.59;;;9.20;100.00
78613;BME280;67933;51.060;3.638;2024-03-06T09:38:53;102231.34;;;9.37;100.00
78613;BME280;67933;51.060;3.638;2024-03-06T09:41:18;102227.00;;;10.67;100.00
78613;BME280;67933;51.060;3.638;2024-03-06T09:43:47;102229.59;;;11.15;100.00
78613;BME280;67933;51.060;3.638;2024-03-06T09:46:14;102232.16;;;10.95;100.00
78613;BME280;67933;51.060;3.638;2024-03-06T09:48:49;102241.19;;;10.66;100.00
78613;BME280;67933;51.060;3.638;2024-03-06T09:51:16;102240.78;;;10.27;100.00
78613;BME280;67933;51.060;3.638;2024-03-06T09:53:42;102245.16;;;9.74;100.00
78613;BME280;67933;51.060;3.638;2024-03-06T09:56:10;102258.03;;;9.58;100.00
78613;BME280;67933;51.060;3.638;2024-03-06T09:58:36;102261.47;;;9.60;100.00
78613;BME280;67933;51.060;3.638;2024-03-06T10:01:02;102264.88;;;9.65;100.00
78613;BME280;67933;51.060;3.638;2024-03-06T10:03:29;102258.63;;;11.45;100.00
78613;BME280;67933;51.060;3.638;2024-03-06T10:05:54;102258.41;;;11.94;100.00
78613;BME280;67933;51.060;3.638;2024-03-06T10:08:22;102251.59;;;13.31;100.00
78613;BME280;67933;51.060;3.638;2024-03-06T10:10:50;102250.50;;;14.25;100.00
78613;BME280;67933;51.060;3.638;2024-03-06T10:13:17;102247.97;;;14.05;100.00
78613;BME280;67933;51.060;3.638;2024-03-06T10:15:54;102250.84;;;13.83;100.00
78613;BME280;67933;51.060;3.638;2024-03-06T10:18:20;102257.75;;;14.58;100.00
78613;BME280;67933;51.060;3.638;2024-03-06T10:20:46;102255.94;;;14.24;100.00
78613;BME280;67933;51.060;3.638;2024-03-06T10:23:11;102260.59;;;13.47;100.00
78613;BME280;67933;51.060;3.638;2024-03-06T10:25:37;102265.34;;;11.99;100.00
78613;BME280;67933;51.060;3.638;2024-03-06T10:30:28;102269.13;;;11.25;100.00
78613;BME280;67933;51.060;3.638;2024-03-06T10:32:53;102267.97;;;11.32;100.00
78613;BME280;67933;51.060;3.638;2024-03-06T10:35:20;102270.16;;;11.21;100.00
78613;BME280;67933;51.060;3.638;2024-03-06T10:37:46;102276.06;;;10.80;100.00
78613;BME280;67933;51.060;3.638;2024-03-06T10:40:14;102269.88;;;10.55;100.00
78613;BME280;67933;51.060;3.638;2024-03-06T10:42:40;102276.66;;;10.64;100.00
78613;BME280;67933;51.060;3.638;2024-03-06T10:45:07;102281.97;;;10.89;100.00
78613;BME280;67933;51.060;3.638;2024-03-06T10:47:39;102268.19;;;11.02;100.00
78613;BME280;67933;51.060;3.638;2024-03-06T10:50:06;102271.41;;;11.57;100.00
78613;BME280;67933;51.060;3.638;2024-03-06T10:52:36;102272.13;;;12.27;100.00
78613;BME280;67933;51.060;3.638;2024-03-06T10:55:03;102269.97;;;14.27;100.00
78613;BME280;67933;51.060;3.638;2024-03-06T10:57:29;102278.06;;;15.28;100.00
78613;BME280;67933;51.060;3.638;2024-03-06T10:59:56;102276.34;;;15.75;100.00
78613;BME280;67933;51.060;3.638;2024-03-06T11:02:24;102275.41;;;15.28;100.00
78613;BME280;67933;51.060;3.638;2024-03-06T11:04:53;102275.47;;;14.24;100.00
78613;BME280;67933;51.060;3.638;2024-03-06T11:07:19;102284.78;;;13.42;100.00
78613;BME280;67933;51.060;3.638;2024-03-06T11:09:45;102281.13;;;15.05;100.00
78613;BME280;67933;51.060;3.638;2024-03-06T11:12:32;102278.88;;;16.54;100.00
78613;BME280;67933;51.060;3.638;2024-03-06T11:14:57;102281.88;;;17.36;100.00
78613;BME280;67933;51.060;3.638;2024-03-06T11:17:25;102295.69;;;16.26;100.00
78613;BME280;67933;51.060;3.638;2024-03-06T11:28:18;102292.63;;;17.91;59.84
78613;BME280;67933;51.060;3.638;2024-03-06T11:34:06;102279.50;;;19.18;56.69
78613;BME280;67933;51.060;3.638;2024-03-06T11:36:34;102290.25;;;19.56;58.76
78613;BME280;67933;51.060;3.638;2024-03-06T11:39:00;102270.75;;;17.97;61.33
78613;BME280;67933;51.060;3.638;2024-03-06T11:41:27;102278.50;;;18.29;61.58
78613;BME280;67933;51.060;3.638;2024-03-06T11:43:54;102286.84;;;16.55;62.08
78613;BME280;67933;51.060;3.638;2024-03-06T11:46:22;102281.84;;;17.50;65.58
78613;BME280;67933;51.060;3.638;2024-03-06T11:48:54;102284.75;;;19.07;59.16
78613;BME280;67933;51.060;3.638;2024-03-06T11:51:24;102282.56;;;19.99;52.77
78613;BME280;67933;51.060;3.638;2024-03-06T11:53:50;102288.69;;;20.01;53.09
78613;BME280;67933;51.060;3.638;2024-03-06T11:56:20;102290.19;;;20.05;53.19
78613;BME280;67933;51.060;3.638;2024-03-06T11:58:46;102290.03;;;19.21;48.91
78613;BME280;67933;51.060;3.638;2024-03-06T12:01:12;102287.97;;;18.61;49.86
78613;BME280;67933;51.060;3.638;2024-03-06T12:03:38;102289.81;;;18.34;53.42
78613;BME280;67933;51.060;3.638;2024-03-06T12:06:04;102299.44;;;16.53;59.40
78613;BME280;67933;51.060;3.638;2024-03-06T12:08:30;102299.38;;;15.62;63.91
78613;BME280;67933;51.060;3.638;2024-03-06T12:10:58;102294.03;;;14.79;65.55
78613;BME280;67933;51.060;3.638;2024-03-06T12:13:24;102287.53;;;14.14;71.48
78613;BME280;67933;51.060;3.638;2024-03-06T12:15:50;102296.06;;;14.04;72.29
78613;BME280;67933;51.060;3.638;2024-03-06T12:18:17;102293.59;;;13.82;75.15
78613;BME280;67933;51.060;3.638;2024-03-06T12:20:43;102293.22;;;13.90;74.29
78613;BME280;67933;51.060;3.638;2024-03-06T12:23:21;102289.78;;;13.69;73.24
78613;BME280;67933;51.060;3.638;2024-03-06T12:25:48;102290.91;;;13.63;75.59
78613;BME280;67933;51.060;3.638;2024-03-06T12:28:13;102292.41;;;13.87;75.38
78613;BME280;67933;51.060;3.638;2024-03-06T12:30:42;102290.53;;;14.61;74.80
78613;BME280;67933;51.060;3.638;2024-03-06T12:33:08;102290.03;;;16.62;62.51
78613;BME280;67933;51.060;3.638;2024-03-06T12:35:35;102291.72;;;16.79;62.89
78613;BME280;67933;51.060;3.638;2024-03-06T12:38:14;102294.59;;;15.52;67.65
78613;BME280;67933;51.060;3.638;2024-03-06T12:40:40;102303.63;;;14.83;67.86
78613;BME280;67933;51.060;3.638;2024-03-06T12:43:06;102294.91;;;14.80;68.01
78613;BME280;67933;51.060;3.638;2024-03-06T12:45:32;102293.75;;;14.68;67.88
78613;BME280;67933;51.060;3.638;2024-03-06T12:47:58;102296.19;;;14.19;71.18
78613;BME280;67933;51.060;3.638;2024-03-06T12:50:23;102297.34;;;13.78;70.51
78613;BME280;67933;51.060;3.638;2024-03-06T12:52:49;102293.69;;;13.62;73.58
78613;BME280;67933;51.060;3.638;2024-03-06T12:55:14;102298.00;;;13.45;78.02
78613;BME280;67933;51.060;3.638;2024-03-06T12:57:40;102297.09;;;13.26;78.83